createdAt,value
2018-06-29T00:00:24.422Z,0
2018-06-29T00:01:34.237Z,0
2018-06-29T00:02:44.395Z,0
2018-06-29T00:03:54.642Z,0
2018-06-29T00:05:05.006Z,0
2018-06-29T00:06:15.244Z,0
2018-06-29T00:07:25.465Z,0
2018-06-29T00:08:35.617Z,0
2018-06-29T00:09:45.773Z,0
2018-06-29T00:10:55.970Z,0
2018-06-29T00:12:06.095Z,0
2018-06-29T00:13:16.268Z,0
2018-06-29T00:14:26.445Z,0
2018-06-29T00:15:36.604Z,0
2018-06-29T00:16:46.868Z,0
2018-06-29T00:17:56.580Z,0
2018-06-29T00:19:06.725Z,0
2018-06-29T00:20:16.986Z,0
2018-06-29T00:21:27.147Z,0
2018-06-29T00:22:38.270Z,0
2018-06-29T00:23:48.411Z,0
2018-06-29T00:24:58.679Z,0
2018-06-29T00:26:08.868Z,0
2018-06-29T00:27:19.156Z,0
2018-06-29T00:28:29.436Z,0
2018-06-29T00:29:39.615Z,0
2018-06-29T00:30:49.553Z,0
2018-06-29T00:31:59.687Z,0
2018-06-29T00:33:09.864Z,0
2018-06-29T00:34:19.995Z,0
2018-06-29T00:35:29.938Z,0
2018-06-29T00:36:39.947Z,0
2018-06-29T00:37:50.118Z,0
2018-06-29T00:39:00.270Z,0
2018-06-29T00:40:10.536Z,0
2018-06-29T00:41:21.152Z,0
2018-06-29T00:42:31.062Z,0
2018-06-29T00:43:41.265Z,0
2018-06-29T00:44:52.046Z,0
2018-06-29T00:46:02.623Z,0
2018-06-29T00:47:12.716Z,0
2018-06-29T00:48:22.829Z,0
2018-06-29T00:49:33.012Z,0
2018-06-29T00:50:42.892Z,0
2018-06-29T00:51:53.012Z,0
2018-06-29T00:53:03.155Z,0
2018-06-29T00:54:13.062Z,0
2018-06-29T00:55:23.547Z,0
2018-06-29T00:56:33.639Z,0
2018-06-29T00:57:43.940Z,0
2018-06-29T00:58:54.102Z,0
2018-06-29T01:00:04.496Z,0
2018-06-29T01:01:14.254Z,0
2018-06-29T01:02:24.141Z,0
2018-06-29T01:03:33.942Z,0
2018-06-29T01:04:44.802Z,0
2018-06-29T01:05:54.935Z,0
2018-06-29T01:07:04.864Z,0
2018-06-29T01:08:15.244Z,0
2018-06-29T01:09:25.256Z,0
2018-06-29T01:10:35.370Z,0
2018-06-29T01:12:58.578Z,0
2018-06-29T01:14:08.709Z,0
2018-06-29T01:15:18.905Z,0
2018-06-29T01:16:29.041Z,0
2018-06-29T01:17:38.847Z,0
2018-06-29T01:18:48.985Z,0
2018-06-29T01:19:59.147Z,0
2018-06-29T01:21:09.429Z,0
2018-06-29T01:22:19.639Z,0
2018-06-29T01:23:29.796Z,0
2018-06-29T01:24:39.967Z,0
2018-06-29T01:25:50.216Z,0
2018-06-29T01:27:00.396Z,0
2018-06-29T01:28:10.836Z,0
2018-06-29T01:29:20.956Z,0
2018-06-29T01:30:31.123Z,0
2018-06-29T01:31:41.019Z,0
2018-06-29T01:32:51.213Z,0
2018-06-29T01:34:01.403Z,0
2018-06-29T01:35:11.535Z,0
2018-06-29T01:36:21.678Z,0
2018-06-29T01:37:31.554Z,0
2018-06-29T01:38:41.730Z,0
2018-06-29T01:39:51.960Z,0
2018-06-29T01:41:01.509Z,0
2018-06-29T01:42:11.655Z,0
2018-06-29T01:43:21.802Z,0
2018-06-29T01:44:31.969Z,0
2018-06-29T01:45:42.095Z,0
2018-06-29T01:46:52.255Z,0
2018-06-29T01:48:02.481Z,0
2018-06-29T01:49:12.651Z,0
2018-06-29T01:50:22.917Z,0
2018-06-29T01:51:32.877Z,0
2018-06-29T01:52:43.372Z,0
2018-06-29T01:53:53.630Z,0
2018-06-29T01:55:03.822Z,0
2018-06-29T01:56:14.167Z,0
2018-06-29T01:57:23.804Z,0
2018-06-29T01:58:34.923Z,0
2018-06-29T01:59:45.088Z,0
2018-06-29T02:00:55.243Z,0
2018-06-29T02:02:05.376Z,0
2018-06-29T02:03:15.719Z,0
2018-06-29T02:04:25.830Z,0
2018-06-29T02:05:35.691Z,0
2018-06-29T02:06:45.862Z,0
2018-06-29T02:07:55.809Z,0
2018-06-29T02:09:05.698Z,0
2018-06-29T02:10:15.883Z,0
2018-06-29T02:11:26.279Z,0
2018-06-29T02:12:36.444Z,0
2018-06-29T02:13:46.558Z,0
2018-06-29T02:14:56.735Z,0
2018-06-29T02:16:06.902Z,0
2018-06-29T02:17:17.081Z,0
2018-06-29T02:18:27.315Z,0
2018-06-29T02:19:37.595Z,0
2018-06-29T02:20:47.812Z,0
2018-06-29T02:21:58.016Z,0
2018-06-29T02:23:08.204Z,0
2018-06-29T02:24:18.378Z,0
2018-06-29T02:25:28.535Z,0
2018-06-29T02:26:38.774Z,0
2018-06-29T02:27:49.753Z,0
2018-06-29T02:28:59.875Z,0
2018-06-29T02:30:10.098Z,0
2018-06-29T02:31:20.245Z,0
2018-06-29T02:32:30.445Z,0
2018-06-29T02:33:40.425Z,0
2018-06-29T02:34:50.846Z,0
2018-06-29T02:36:01.070Z,0
2018-06-29T02:37:10.988Z,0
2018-06-29T02:38:21.128Z,0
2018-06-29T02:39:31.448Z,0
2018-06-29T02:40:41.578Z,0
2018-06-29T02:41:51.823Z,0
2018-06-29T02:43:02.063Z,0
2018-06-29T02:44:12.214Z,0
2018-06-29T02:45:22.166Z,0
2018-06-29T02:46:32.163Z,0
2018-06-29T02:47:42.362Z,0
2018-06-29T02:48:53.460Z,0
2018-06-29T02:50:03.410Z,0
2018-06-29T02:51:13.629Z,0
2018-06-29T02:52:23.825Z,5
2018-06-29T02:53:34.050Z,5
2018-06-29T02:54:43.642Z,5
2018-06-29T02:55:53.806Z,5
2018-06-29T02:57:03.931Z,5
2018-06-29T02:58:14.100Z,5
2018-06-29T02:59:24.232Z,5
2018-06-29T03:00:34.101Z,5
2018-06-29T03:01:44.272Z,10
2018-06-29T03:02:54.417Z,10
2018-06-29T03:04:04.628Z,10
2018-06-29T03:05:14.779Z,10
2018-06-29T03:06:24.940Z,10
2018-06-29T03:07:35.129Z,10
2018-06-29T03:08:45.049Z,10
2018-06-29T03:09:55.177Z,10
2018-06-29T03:11:05.418Z,15
2018-06-29T03:12:15.615Z,15
2018-06-29T03:13:25.874Z,15
2018-06-29T03:14:35.758Z,15
2018-06-29T03:15:45.933Z,15
2018-06-29T03:16:56.112Z,15
2018-06-29T03:18:06.268Z,20
2018-06-29T03:19:16.476Z,20
2018-06-29T03:20:26.631Z,20
2018-06-29T03:21:36.824Z,20
2018-06-29T03:22:47.004Z,20
2018-06-29T03:23:56.933Z,20
2018-06-29T03:25:07.190Z,25
2018-06-29T03:26:17.375Z,25
2018-06-29T03:27:27.237Z,25
2018-06-29T03:28:37.366Z,25
2018-06-29T03:29:48.006Z,25
2018-06-29T03:30:58.192Z,30
2018-06-29T03:32:08.103Z,30
2018-06-29T03:33:18.323Z,30
2018-06-29T03:34:28.478Z,30
2018-06-29T03:35:38.351Z,30
2018-06-29T03:36:48.489Z,30
2018-06-29T03:37:58.245Z,35
2018-06-29T03:39:08.233Z,35
2018-06-29T03:40:19.760Z,35
2018-06-29T03:41:29.908Z,35
2018-06-29T03:42:40.067Z,35
2018-06-29T03:43:50.200Z,40
2018-06-29T03:45:00.626Z,40
2018-06-29T03:46:10.757Z,40
2018-06-29T03:47:21.110Z,40
2018-06-29T03:48:30.991Z,40
2018-06-29T03:49:41.405Z,45
2018-06-29T03:50:51.537Z,45
2018-06-29T03:52:01.111Z,45
2018-06-29T03:53:12.082Z,45
2018-06-29T03:54:22.219Z,45
2018-06-29T03:55:32.360Z,50
2018-06-29T03:56:42.502Z,50
2018-06-29T03:57:52.439Z,50
2018-06-29T03:59:02.573Z,50
2018-06-29T04:00:12.972Z,50
2018-06-29T04:01:23.096Z,55
2018-06-29T04:02:33.214Z,55
2018-06-29T04:03:43.118Z,55
2018-06-29T04:04:53.240Z,55
2018-06-29T04:06:03.140Z,55
2018-06-29T04:07:13.297Z,60
2018-06-29T04:08:23.414Z,60
2018-06-29T04:09:33.545Z,60
2018-06-29T04:10:43.743Z,60
2018-06-29T04:11:54.302Z,60
2018-06-29T04:13:04.856Z,65
2018-06-29T04:14:14.782Z,65
2018-06-29T04:15:25.277Z,65
2018-06-29T04:16:35.178Z,65
2018-06-29T04:17:45.084Z,65
2018-06-29T04:18:55.284Z,70
2018-06-29T04:20:05.510Z,70
2018-06-29T04:21:15.861Z,70
2018-06-29T04:22:26.060Z,70
2018-06-29T04:23:36.239Z,70
2018-06-29T04:24:46.307Z,75
2018-06-29T04:25:56.580Z,75
2018-06-29T04:27:06.888Z,75
2018-06-29T04:28:17.116Z,70
2018-06-29T04:29:27.309Z,75
2018-06-29T04:30:37.499Z,75
2018-06-29T04:31:47.763Z,75
2018-06-29T04:32:58.524Z,75
2018-06-29T04:34:08.414Z,75
2018-06-29T04:35:18.559Z,80
2018-06-29T04:36:28.709Z,80
2018-06-29T04:37:38.907Z,80
2018-06-29T04:38:48.787Z,80
2018-06-29T04:39:58.965Z,85
2018-06-29T04:41:08.853Z,85
2018-06-29T04:42:19.214Z,85
2018-06-29T04:43:29.464Z,85
2018-06-29T04:44:39.619Z,85
2018-06-29T04:45:49.747Z,90
2018-06-29T04:46:59.882Z,90
2018-06-29T04:48:10.009Z,90
2018-06-29T04:49:20.042Z,90
2018-06-29T04:50:30.326Z,90
2018-06-29T04:51:40.626Z,95
2018-06-29T04:52:50.765Z,95
2018-06-29T04:54:00.968Z,95
2018-06-29T04:55:11.147Z,95
2018-06-29T04:56:21.311Z,95
2018-06-29T04:58:03.360Z,100
2018-06-29T04:59:13.666Z,100
2018-06-29T05:00:23.580Z,100
2018-06-29T05:01:33.568Z,100
2018-06-29T05:02:43.462Z,100
2018-06-29T05:03:53.624Z,100
2018-06-29T05:05:03.970Z,105
2018-06-29T05:06:13.843Z,105
2018-06-29T05:07:23.718Z,105
2018-06-29T05:08:33.956Z,105
2018-06-29T05:09:44.173Z,105
2018-06-29T05:10:54.431Z,105
2018-06-29T05:12:04.578Z,105
2018-06-29T05:13:14.882Z,105
2018-06-29T05:14:25.053Z,105
2018-06-29T05:15:35.749Z,105
2018-06-29T05:16:46.086Z,105
2018-06-29T05:17:56.329Z,110
2018-06-29T05:19:06.560Z,110
2018-06-29T05:20:16.709Z,110
2018-06-29T05:21:27.031Z,110
2018-06-29T05:22:37.169Z,110
2018-06-29T05:23:46.936Z,115
2018-06-29T05:24:56.814Z,115
2018-06-29T05:26:06.967Z,115
2018-06-29T05:27:17.137Z,115
2018-06-29T05:28:27.506Z,120
2018-06-29T05:29:37.656Z,115
2018-06-29T05:30:47.794Z,120
2018-06-29T05:31:57.969Z,120
2018-06-29T05:33:08.143Z,120
2018-06-29T05:34:18.296Z,120
2018-06-29T05:35:28.104Z,120
2018-06-29T05:36:38.308Z,120
2018-06-29T05:37:48.515Z,120
2018-06-29T05:38:58.669Z,125
2018-06-29T05:40:09.049Z,125
2018-06-29T05:41:19.560Z,125
2018-06-29T05:42:29.467Z,125
2018-06-29T05:43:39.600Z,125
2018-06-29T05:44:49.861Z,125
2018-06-29T05:45:59.734Z,125
2018-06-29T05:47:10.391Z,125
2018-06-29T05:48:21.238Z,125
2018-06-29T05:49:31.218Z,125
2018-06-29T05:50:41.405Z,125
2018-06-29T05:51:51.654Z,125
2018-06-29T05:53:01.879Z,125
2018-06-29T05:54:12.034Z,125
2018-06-29T05:55:21.957Z,125
2018-06-29T05:56:32.175Z,125
2018-06-29T05:57:42.313Z,130
2018-06-29T05:58:52.557Z,130
2018-06-29T06:00:02.724Z,130
2018-06-29T06:01:12.941Z,130
2018-06-29T06:02:23.153Z,130
2018-06-29T06:03:33.325Z,130
2018-06-29T06:04:43.731Z,130
2018-06-29T06:05:53.566Z,130
2018-06-29T06:07:03.743Z,130
2018-06-29T06:08:13.914Z,130
2018-06-29T06:09:24.094Z,130
2018-06-29T06:10:34.244Z,135
2018-06-29T06:11:44.439Z,135
2018-06-29T06:12:54.672Z,135
2018-06-29T06:14:04.855Z,135
2018-06-29T06:15:14.746Z,135
2018-06-29T06:16:24.907Z,135
2018-06-29T06:17:35.081Z,135
2018-06-29T06:18:45.264Z,135
2018-06-29T06:19:55.481Z,135
2018-06-29T06:21:05.990Z,135
2018-06-29T06:22:16.132Z,135
2018-06-29T06:23:26.295Z,135
2018-06-29T06:24:36.488Z,135
2018-06-29T06:25:46.635Z,135
2018-06-29T06:26:56.855Z,145
2018-06-29T06:28:06.764Z,140
2018-06-29T06:29:16.899Z,140
2018-06-29T06:30:27.277Z,140
2018-06-29T06:31:37.872Z,140
2018-06-29T06:32:48.023Z,140
2018-06-29T06:33:58.391Z,145
2018-06-29T06:35:08.594Z,145
2018-06-29T06:36:18.756Z,145
2018-06-29T06:37:28.923Z,150
2018-06-29T06:38:39.067Z,145
2018-06-29T06:39:49.333Z,145
2018-06-29T06:40:59.511Z,145
2018-06-29T06:42:09.655Z,145
2018-06-29T06:43:19.807Z,145
2018-06-29T06:44:29.948Z,145
2018-06-29T06:45:40.069Z,145
2018-06-29T06:46:50.240Z,145
2018-06-29T06:48:00.159Z,145
2018-06-29T06:49:10.347Z,145
2018-06-29T06:50:20.818Z,145
2018-06-29T06:51:31.035Z,145
2018-06-29T06:52:41.368Z,145
2018-06-29T06:53:52.053Z,145
2018-06-29T06:55:02.069Z,145
2018-06-29T06:56:12.237Z,145
2018-06-29T06:57:22.391Z,145
2018-06-29T06:58:32.183Z,145
2018-06-29T06:59:42.371Z,145
2018-06-29T07:00:52.565Z,145
2018-06-29T07:02:02.100Z,145
2018-06-29T07:03:12.240Z,145
2018-06-29T07:04:22.412Z,145
2018-06-29T07:05:32.601Z,145
2018-06-29T07:06:42.875Z,145
2018-06-29T07:07:53.135Z,145
2018-06-29T07:09:03.295Z,145
2018-06-29T07:10:13.466Z,145
2018-06-29T07:11:23.649Z,145
2018-06-29T07:12:34.291Z,145
2018-06-29T07:13:44.435Z,145
2018-06-29T07:14:54.579Z,145
2018-06-29T07:16:04.743Z,145
2018-06-29T07:17:15.000Z,145
2018-06-29T07:18:25.751Z,145
2018-06-29T07:19:35.912Z,145
2018-06-29T07:20:46.144Z,145
2018-06-29T07:21:56.328Z,145
2018-06-29T07:23:06.231Z,145
2018-06-29T07:24:16.370Z,145
2018-06-29T07:25:26.574Z,145
2018-06-29T07:26:36.861Z,145
2018-06-29T07:27:46.870Z,145
2018-06-29T07:28:57.031Z,145
2018-06-29T07:30:07.095Z,145
2018-06-29T07:31:16.649Z,145
2018-06-29T07:32:27.790Z,145
2018-06-29T07:33:37.992Z,145
2018-06-29T07:34:47.946Z,150
2018-06-29T07:35:58.083Z,150
2018-06-29T07:37:08.297Z,150
2018-06-29T07:38:18.554Z,150
2018-06-29T07:39:28.769Z,150
2018-06-29T07:40:39.030Z,150
2018-06-29T07:41:48.923Z,150
2018-06-29T07:42:59.187Z,155
2018-06-29T07:44:09.349Z,155
2018-06-29T07:45:19.297Z,155
2018-06-29T07:46:29.488Z,155
2018-06-29T07:47:39.660Z,155
2018-06-29T07:48:49.812Z,160
2018-06-29T07:50:00.081Z,160
2018-06-29T07:51:10.309Z,160
2018-06-29T07:52:20.129Z,160
2018-06-29T07:53:30.438Z,160
2018-06-29T07:54:40.659Z,165
2018-06-29T07:55:50.589Z,165
2018-06-29T07:57:00.488Z,165
2018-06-29T07:58:10.580Z,165
2018-06-29T07:59:20.984Z,165
2018-06-29T08:00:31.174Z,170
2018-06-29T08:01:41.392Z,170
2018-06-29T08:02:52.177Z,170
2018-06-29T08:04:02.676Z,170
2018-06-29T08:05:12.450Z,175
2018-06-29T08:06:22.707Z,175
2018-06-29T08:07:32.902Z,175
2018-06-29T08:08:43.250Z,175
2018-06-29T08:09:53.482Z,180
2018-06-29T08:11:03.677Z,180
2018-06-29T08:12:13.870Z,180
2018-06-29T08:13:23.759Z,185
2018-06-29T08:14:33.914Z,185
2018-06-29T08:15:44.084Z,185
2018-06-29T08:16:54.408Z,190
2018-06-29T08:18:04.242Z,190
2018-06-29T08:19:14.139Z,190
2018-06-29T08:20:24.279Z,195
2018-06-29T08:21:34.437Z,195
2018-06-29T08:22:44.314Z,195
2018-06-29T08:23:55.185Z,195
2018-06-29T08:25:05.603Z,195
2018-06-29T08:26:15.772Z,195
2018-06-29T08:27:25.913Z,195
2018-06-29T08:28:36.079Z,195
2018-06-29T08:29:45.988Z,205
2018-06-29T08:30:56.121Z,200
2018-06-29T08:32:06.262Z,200
2018-06-29T08:33:15.897Z,210
2018-06-29T08:34:26.096Z,205
2018-06-29T08:35:36.375Z,205
2018-06-29T08:36:46.256Z,205
2018-06-29T08:37:56.442Z,205
2018-06-29T08:39:06.566Z,205
2018-06-29T08:40:16.784Z,210
2018-06-29T08:41:27.091Z,210
2018-06-29T08:42:37.328Z,215
2018-06-29T08:43:47.489Z,220
2018-06-29T08:44:57.695Z,240
2018-06-29T08:46:07.896Z,605
2018-06-29T08:47:18.246Z,1310
2018-06-29T08:48:28.296Z,1815
2018-06-29T08:49:39.225Z,1820
2018-06-29T08:50:49.444Z,1765
2018-06-29T08:51:59.946Z,1740
2018-06-29T08:53:10.236Z,1480
2018-06-29T08:54:20.378Z,785
2018-06-29T08:55:30.534Z,320
2018-06-29T08:56:40.674Z,285
2018-06-29T08:57:50.208Z,270
2018-06-29T08:59:00.886Z,270
2018-06-29T09:00:11.087Z,270
2018-06-29T09:01:21.019Z,280
2018-06-29T09:02:32.158Z,300
2018-06-29T09:03:42.329Z,500
2018-06-29T09:04:52.593Z,1295
2018-06-29T09:06:02.747Z,1935
2018-06-29T09:07:12.671Z,2055
2018-06-29T09:08:22.307Z,2120
2018-06-29T09:09:32.203Z,2100
2018-06-29T09:10:42.428Z,2065
2018-06-29T09:11:52.590Z,2005
2018-06-29T09:13:02.742Z,2045
2018-06-29T09:14:13.303Z,2180
2018-06-29T09:15:23.488Z,2315
2018-06-29T09:16:33.409Z,2400
2018-06-29T09:17:43.562Z,2590
2018-06-29T09:18:54.394Z,2695
2018-06-29T09:20:04.572Z,2705
2018-06-29T09:21:14.720Z,2595
2018-06-29T09:22:24.898Z,2500
2018-06-29T09:23:35.056Z,2465
2018-06-29T09:24:45.288Z,2540
2018-06-29T09:25:55.503Z,2605
2018-06-29T09:27:05.683Z,2645
2018-06-29T09:28:15.894Z,2615
2018-06-29T09:29:26.045Z,2555
2018-06-29T09:30:36.432Z,2470
2018-06-29T09:31:46.329Z,2440
2018-06-29T09:32:56.574Z,2475
2018-06-29T09:34:06.791Z,2525
2018-06-29T09:35:16.968Z,2565
2018-06-29T09:36:27.343Z,2625
2018-06-29T09:37:37.627Z,2640
2018-06-29T09:38:47.860Z,2145
2018-06-29T09:39:58.061Z,2275
2018-06-29T09:41:11.301Z,2400
2018-06-29T09:42:21.523Z,2525
2018-06-29T09:43:31.764Z,2605
2018-06-29T09:44:43.947Z,2310
2018-06-29T09:45:53.876Z,2450
2018-06-29T09:47:05.313Z,2440
2018-06-29T09:48:24.855Z,2030
2018-06-29T09:49:34.784Z,1960
2018-06-29T09:50:44.971Z,2250
2018-06-29T09:51:55.154Z,2320
2018-06-29T09:53:05.068Z,2460
2018-06-29T09:54:15.537Z,2365
2018-06-29T09:55:25.751Z,2450
2018-06-29T09:56:35.995Z,2430
2018-06-29T09:57:46.176Z,2420
2018-06-29T09:58:56.087Z,2350
2018-06-29T10:00:06.518Z,2070
2018-06-29T10:01:17.025Z,2185
2018-06-29T10:02:41.439Z,2210
2018-06-29T10:03:51.624Z,2390
2018-06-29T10:05:02.026Z,2595
2018-06-29T10:06:12.251Z,2575
2018-06-29T10:07:22.457Z,2610
2018-06-29T10:08:32.612Z,2655
2018-06-29T10:09:42.850Z,2630
2018-06-29T10:10:53.066Z,2565
2018-06-29T10:12:03.242Z,2380
2018-06-29T10:13:13.636Z,1945
2018-06-29T10:14:24.157Z,2345
2018-06-29T10:15:34.442Z,2560
2018-06-29T10:16:44.731Z,2670
2018-06-29T10:17:55.058Z,2400
2018-06-29T10:19:04.975Z,2430
2018-06-29T10:20:16.212Z,2465
2018-06-29T10:21:26.554Z,2455
2018-06-29T10:22:37.179Z,2645
2018-06-29T10:23:47.401Z,2750
2018-06-29T10:24:58.559Z,3015
2018-06-29T10:26:08.726Z,3200
2018-06-29T10:27:18.882Z,3350
2018-06-29T10:28:29.168Z,3455
2018-06-29T10:29:39.180Z,3555
2018-06-29T10:30:49.526Z,3600
2018-06-29T10:31:59.798Z,3595
2018-06-29T10:33:09.980Z,3505
2018-06-29T10:34:19.941Z,3450
2018-06-29T10:35:30.230Z,3385
2018-06-29T10:36:40.507Z,3390
2018-06-29T10:37:50.750Z,3450
2018-06-29T10:39:01.172Z,3550
2018-06-29T10:40:11.374Z,3020
2018-06-29T10:41:21.619Z,3350
2018-06-29T10:42:31.575Z,3390
2018-06-29T10:43:41.851Z,3145
2018-06-29T10:44:52.721Z,3055
2018-06-29T10:46:02.680Z,3035
2018-06-29T10:47:13.999Z,2635
2018-06-29T10:48:23.915Z,2945
2018-06-29T10:49:34.119Z,2675
2018-06-29T10:50:44.307Z,2375
2018-06-29T10:51:54.486Z,1550
2018-06-29T10:53:04.478Z,1240
2018-06-29T10:54:14.823Z,955
2018-06-29T10:55:25.100Z,1260
2018-06-29T10:56:35.306Z,1195
2018-06-29T10:57:45.573Z,1470
2018-06-29T10:58:55.911Z,2280
2018-06-29T11:00:06.174Z,2680
2018-06-29T11:01:16.345Z,2450
2018-06-29T11:02:26.532Z,2435
2018-06-29T11:03:37.695Z,2535
2018-06-29T11:04:47.923Z,2920
2018-06-29T11:05:58.109Z,3305
2018-06-29T11:07:08.311Z,3040
2018-06-29T11:08:18.479Z,2260
2018-06-29T11:09:28.646Z,2425
2018-06-29T11:10:38.905Z,2335
2018-06-29T11:11:49.137Z,3090
2018-06-29T11:12:59.394Z,3235
2018-06-29T11:14:09.674Z,2855
2018-06-29T11:15:19.841Z,3540
2018-06-29T11:16:30.008Z,3725
2018-06-29T11:17:40.485Z,3655
2018-06-29T11:18:50.912Z,3565
2018-06-29T11:20:01.073Z,3270
2018-06-29T11:21:11.266Z,3500
2018-06-29T11:22:21.439Z,3175
2018-06-29T11:23:31.598Z,3135
2018-06-29T11:24:41.766Z,2910
2018-06-29T11:25:51.769Z,2870
2018-06-29T11:27:01.500Z,2770
2018-06-29T11:28:11.775Z,2115
2018-06-29T11:29:21.480Z,2005
2018-06-29T11:30:31.995Z,2655
2018-06-29T11:31:42.367Z,3295
2018-06-29T11:32:52.780Z,3315
2018-06-29T11:34:02.970Z,3405
2018-06-29T11:35:12.894Z,3345
2018-06-29T11:36:23.159Z,3410
2018-06-29T11:37:33.077Z,3480
2018-06-29T11:38:43.312Z,2965
2018-06-29T11:39:53.491Z,2720
2018-06-29T11:41:03.779Z,2765
2018-06-29T11:42:13.971Z,3140
2018-06-29T11:43:24.189Z,3215
2018-06-29T11:44:33.853Z,3280
2018-06-29T11:45:44.209Z,3250
2018-06-29T11:46:54.411Z,3280
2018-06-29T11:48:04.643Z,3330
2018-06-29T11:49:14.821Z,3295
2018-06-29T11:50:25.024Z,2980
2018-06-29T11:51:35.273Z,2755
2018-06-29T11:52:45.456Z,2900
2018-06-29T11:53:55.662Z,2930
2018-06-29T11:55:05.864Z,3015
2018-06-29T11:56:16.186Z,2585
2018-06-29T11:57:26.380Z,2125
2018-06-29T11:58:37.551Z,2955
2018-06-29T11:59:47.758Z,3075
2018-06-29T12:00:57.978Z,3040
2018-06-29T12:02:08.197Z,2810
2018-06-29T12:03:18.425Z,2020
2018-06-29T12:04:28.911Z,2190
2018-06-29T12:05:39.082Z,2320
2018-06-29T12:06:49.317Z,1715
2018-06-29T12:07:59.601Z,1475
2018-06-29T12:09:09.779Z,1340
2018-06-29T12:10:20.270Z,1600
2018-06-29T12:11:30.677Z,1235
2018-06-29T12:12:40.835Z,1070
2018-06-29T12:13:51.068Z,1055
2018-06-29T12:15:01.646Z,995
2018-06-29T12:16:12.012Z,1090
2018-06-29T12:17:22.048Z,1835
2018-06-29T12:18:32.272Z,2135
2018-06-29T12:19:42.459Z,1965
2018-06-29T12:20:53.040Z,1345
2018-06-29T12:22:02.869Z,1225
2018-06-29T12:23:13.103Z,1905
2018-06-29T12:24:23.324Z,2010
2018-06-29T12:25:33.566Z,2240
2018-06-29T12:26:43.925Z,2545
2018-06-29T12:27:53.870Z,2230
2018-06-29T12:29:03.844Z,2340
2018-06-29T12:30:14.047Z,1965
2018-06-29T12:31:23.796Z,2035
2018-06-29T12:32:33.970Z,1620
2018-06-29T12:33:44.185Z,1985
2018-06-29T12:34:54.401Z,1960
2018-06-29T12:36:04.617Z,1855
2018-06-29T12:37:14.838Z,1835
2018-06-29T12:38:26.116Z,2090
2018-06-29T12:39:36.305Z,2300
2018-06-29T12:40:46.250Z,2225
2018-06-29T12:41:56.435Z,2085
2018-06-29T12:43:06.864Z,1175
2018-06-29T12:44:16.708Z,1020
2018-06-29T12:45:26.898Z,1005
2018-06-29T12:46:36.866Z,905
2018-06-29T12:47:46.782Z,825
2018-06-29T12:48:56.995Z,1100
2018-06-29T12:50:07.265Z,1000
2018-06-29T12:51:17.449Z,1240
2018-06-29T12:52:27.692Z,1965
2018-06-29T12:53:37.859Z,2810
2018-06-29T12:54:48.166Z,2850
2018-06-29T12:55:58.911Z,1810
2018-06-29T12:57:09.296Z,2000
2018-06-29T12:58:19.551Z,2235
2018-06-29T12:59:29.752Z,2370
2018-06-29T13:00:39.910Z,2360
2018-06-29T13:01:49.853Z,2250
2018-06-29T13:03:00.057Z,1935
2018-06-29T13:04:10.266Z,2035
2018-06-29T13:05:20.727Z,1835
2018-06-29T13:06:30.990Z,1610
2018-06-29T13:07:41.141Z,1110
2018-06-29T13:08:51.052Z,1200
2018-06-29T13:10:01.248Z,1090
2018-06-29T13:11:11.405Z,830
2018-06-29T13:12:21.620Z,730
2018-06-29T13:13:31.783Z,755
2018-06-29T13:14:42.031Z,1050
2018-06-29T13:15:52.238Z,890
2018-06-29T13:17:02.461Z,880
2018-06-29T13:18:12.647Z,1030
2018-06-29T13:19:22.840Z,1240
2018-06-29T13:20:33.299Z,1660
2018-06-29T13:21:43.505Z,1975
2018-06-29T13:22:53.667Z,2345
2018-06-29T13:24:03.468Z,2365
2018-06-29T13:25:13.696Z,2720
2018-06-29T13:26:23.698Z,2825
2018-06-29T13:27:33.685Z,2855
2018-06-29T13:28:43.875Z,2865
2018-06-29T13:29:54.073Z,2825
2018-06-29T13:31:04.500Z,2440
2018-06-29T13:32:14.808Z,2610
2018-06-29T13:33:25.126Z,2625
2018-06-29T13:34:35.292Z,2590
2018-06-29T13:35:45.489Z,2520
2018-06-29T13:36:55.719Z,2425
2018-06-29T13:38:05.966Z,2390
2018-06-29T13:39:16.196Z,2120
2018-06-29T13:40:26.147Z,1920
2018-06-29T13:41:36.381Z,2100
2018-06-29T13:42:46.536Z,2395
2018-06-29T13:43:57.248Z,2495
2018-06-29T13:45:07.417Z,2435
2018-06-29T13:46:17.610Z,2390
2018-06-29T13:47:27.803Z,2315
2018-06-29T13:48:38.235Z,2355
2018-06-29T13:49:48.234Z,2390
2018-06-29T13:50:58.429Z,2105
2018-06-29T13:52:08.832Z,1985
2018-06-29T13:53:18.824Z,2005
2018-06-29T13:54:29.068Z,2130
2018-06-29T13:55:39.223Z,2125
2018-06-29T13:56:49.427Z,2080
2018-06-29T13:57:59.433Z,2085
2018-06-29T13:59:09.616Z,2105
2018-06-29T14:00:19.772Z,2135
2018-06-29T14:01:29.983Z,2175
2018-06-29T14:02:40.743Z,2225
2018-06-29T14:03:50.926Z,1770
2018-06-29T14:05:00.772Z,1110
2018-06-29T14:06:10.999Z,2060
2018-06-29T14:07:21.205Z,2275
2018-06-29T14:08:31.369Z,2265
2018-06-29T14:09:41.566Z,2240
2018-06-29T14:10:51.749Z,2125
2018-06-29T14:12:01.725Z,2105
2018-06-29T14:13:11.632Z,2080
2018-06-29T14:14:21.572Z,2150
2018-06-29T14:15:32.722Z,2190
2018-06-29T14:16:42.908Z,2170
2018-06-29T14:17:53.078Z,2110
2018-06-29T14:19:03.246Z,2055
2018-06-29T14:20:13.449Z,2000
2018-06-29T14:21:23.655Z,2040
2018-06-29T14:22:33.852Z,2130
2018-06-29T14:23:44.221Z,2195
2018-06-29T14:24:54.474Z,2170
2018-06-29T14:26:04.672Z,2050
2018-06-29T14:27:14.835Z,1960
2018-06-29T14:28:25.033Z,1925
2018-06-29T14:29:35.240Z,1915
2018-06-29T14:30:45.313Z,1980
2018-06-29T14:31:55.151Z,2055
2018-06-29T14:33:05.375Z,2095
2018-06-29T14:34:15.581Z,2055
2018-06-29T14:35:25.936Z,2005
2018-06-29T14:36:36.180Z,1990
2018-06-29T14:37:46.093Z,1950
2018-06-29T14:38:55.692Z,1945
2018-06-29T14:40:05.871Z,1890
2018-06-29T14:41:16.080Z,1810
2018-06-29T14:42:26.305Z,1735
2018-06-29T14:43:36.523Z,1620
2018-06-29T14:44:46.708Z,835
2018-06-29T14:45:56.896Z,1685
2018-06-29T14:47:07.095Z,1735
2018-06-29T14:48:17.288Z,1895
2018-06-29T14:49:28.212Z,1760
2018-06-29T14:50:38.162Z,1670
2018-06-29T14:51:48.233Z,1660
2018-06-29T14:52:58.465Z,1670
2018-06-29T14:54:08.623Z,1680
2018-06-29T14:55:18.805Z,1675
2018-06-29T14:56:28.955Z,1660
2018-06-29T14:57:39.133Z,1555
2018-06-29T14:58:49.326Z,1680
2018-06-29T14:59:59.503Z,1510
2018-06-29T15:01:09.705Z,1145
2018-06-29T15:02:20.089Z,350
2018-06-29T15:03:30.290Z,345
2018-06-29T15:04:40.478Z,760
2018-06-29T15:05:50.680Z,1345
2018-06-29T15:07:00.927Z,1080
2018-06-29T15:08:11.133Z,605
2018-06-29T15:09:21.356Z,460
2018-06-29T15:10:31.528Z,475
2018-06-29T15:11:41.902Z,485
2018-06-29T15:12:52.116Z,460
2018-06-29T15:14:02.279Z,410
2018-06-29T15:15:12.477Z,430
2018-06-29T15:16:22.670Z,425
2018-06-29T15:17:32.857Z,405
2018-06-29T15:18:43.041Z,400
2018-06-29T15:19:53.228Z,420
2018-06-29T15:21:03.178Z,425
2018-06-29T15:22:13.321Z,415
2018-06-29T15:23:23.527Z,370
2018-06-29T15:24:33.735Z,340
2018-06-29T15:25:43.936Z,355
2018-06-29T15:26:53.730Z,370
2018-06-29T15:28:03.955Z,340
2018-06-29T15:29:14.342Z,330
2018-06-29T15:30:24.534Z,330
2018-06-29T15:31:35.246Z,335
2018-06-29T15:32:45.190Z,330
2018-06-29T15:33:55.369Z,330
2018-06-29T15:35:05.579Z,345
2018-06-29T15:36:15.907Z,335
2018-06-29T15:37:26.068Z,340
2018-06-29T15:38:36.309Z,345
2018-06-29T15:39:46.576Z,345
2018-06-29T15:40:56.860Z,355
2018-06-29T15:42:07.064Z,340
2018-06-29T15:43:17.254Z,295
2018-06-29T15:44:27.662Z,275
2018-06-29T15:45:37.893Z,255
2018-06-29T15:46:48.057Z,240
2018-06-29T15:47:58.256Z,245
2018-06-29T15:49:08.432Z,250
2018-06-29T15:50:18.621Z,265
2018-06-29T15:51:28.888Z,285
2018-06-29T15:52:39.039Z,300
2018-06-29T15:53:49.299Z,335
2018-06-29T15:54:59.456Z,350
2018-06-29T15:56:09.670Z,345
2018-06-29T15:57:19.844Z,345
2018-06-29T15:58:30.042Z,360
2018-06-29T15:59:40.239Z,330
2018-06-29T16:00:50.470Z,315
2018-06-29T16:02:00.610Z,285
2018-06-29T16:03:10.815Z,275
2018-06-29T16:04:20.961Z,300
2018-06-29T16:05:30.928Z,290
2018-06-29T16:06:41.221Z,260
2018-06-29T16:07:51.429Z,245
2018-06-29T16:09:01.613Z,240
2018-06-29T16:10:12.846Z,235
2018-06-29T16:11:23.042Z,225
2018-06-29T16:12:33.328Z,225